Ana Sayfa
METAR-TAF:

METAR-TAF

Havaalanları :

Aberdeen, Maryland, Amerika Birleşik Devletleri

Enlem: 39-28N, Boylam: 076-10W, yükseklik: 18 m

Güncel hava durumu gözlemi

Rapor saat 03:58 UTC de 16 dakika önce yapıldı.
Rüzgar doğudan 5 kt
Sıcaklık 16°C
Nem 82%
Basınç 1023 hPa
Görüş mesafesi: 16.1 km
2500 ft yükseklikte çok bulutlu

METAR: KAPG 250358Z AUTO 09005KT 10SM OVC025 16/13 A3022 RMK AO2 SLP237 T01640130 PNO TSNO $

Saat: 00:14 (04:14 UTC)


TAF: eksik

4.000'den fazla havaalanı için hava durumu gözlemleri ve tahminleri (METAR ve TAF raporları).

Kullanılabilir istasyonlar harita üzerinde sarı ve kırmızı noktalarla gösterilir.

İstasyonun adını görmek için fareyi noktanın üzerinde gezdirin.

Sonrasında hava gözlem ve tahminlerini görmek için tıklayın.

Haritayı değiştirmek için: yaklaştırmak için siyah artı işaretli yeşil düğmeye ve uzaklaştırmak için de eksi işaretli düğmeye hızla tıklayın; bitişik haritalar için yeşil okları kullanın.


METAR-TAF: